M/V Rhett Parker — WCX2909 — position and weather

sailwx.info

Track history (hours):
 
Tides and Currents Weather Stations Pressure Air Temp Water Temp Dewpoint Dewpoint Depression Visibility Wind Speed Wind Dir Waves Ship Positions

M/V Rhett Parker

Owner: Parker Towing Company, Inc., TUSCALOOSA, AL. More information available from US FCC via Universal Licensing System and Coast Guard Vessel Documentation Center.

Last reported at 2017-Sep-25 20:38 UTC. Time now 2017-Dec-18 12:36 UTC.
Position N 29°33' W 090°24'.
Warning: this ship's position is months out of date.

Length 26 m.

Type: Tug. MMSI: 367136670.

Date/timePositionNaut miles runAvg speedWind from/ knotsBaromVisibWave heightAir tempDewpointWater temp
2017-Sep-25 20:38N 29°33' W 090°24'0 2.5
2017-Sep-25 20:30N 29°33' W 090°24'1 2.0
2017-Sep-25 19:59N 29°33' W 090°25'1 0.7
2017-Sep-25 18:54N 29°33' W 090°26'2 4.3
2017-Sep-25 18:29N 29°33' W 090°28'2 4.4
2017-Sep-25 18:00N 29°34' W 090°30'2 4.4
2017-Sep-25 17:30N 29°34' W 090°33'2 4.3
2017-Sep-25 16:59N 29°35' W 090°35'2 4.2
2017-Sep-25 16:30N 29°35' W 090°38'2 4.3
2017-Sep-25 16:00N 29°36' W 090°40'2 4.0
2017-Sep-25 15:30N 29°37' W 090°42'2 3.0
2017-Sep-25 15:00N 29°35' W 090°43'2 3.7
2017-Sep-25 14:30N 29°34' W 090°44'2 4.7
2017-Sep-25 14:00N 29°32' W 090°46'3 5.1
2017-Sep-25 13:30N 29°32' W 090°49'3 5.3
2017-Sep-25 13:00N 29°32' W 090°52'3 5.4
2017-Sep-25 12:30N 29°33' W 090°55'3 5.6
2017-Sep-25 12:00N 29°35' W 090°57'55 2.9
2017-Sep-24 17:25N 29°50' W 091°57'2 5.5
2017-Sep-24 17:00N 29°50' W 091°60'3 5.7
2017-Sep-24 16:30N 29°49' W 092°03'3 5.7
2017-Sep-24 16:00N 29°48' W 092°06'3 5.4
2017-Sep-24 15:30N 29°47' W 092°09'2 4.8
2017-Sep-24 15:00N 29°47' W 092°12'1 1.9
2017-Sep-24 14:30N 29°47' W 092°13'1 1.2
2017-Sep-24 14:00N 29°48' W 092°13'0 0.0
2017-Sep-24 13:30N 29°48' W 092°13'0 0.0
2017-Sep-24 13:00N 29°48' W 092°13'1 1.6
2017-Sep-24 12:30N 29°48' W 092°14'2 4.7
2017-Sep-24 12:00N 29°49' W 092°17'3 4.5
2017-Sep-24 11:25N 29°50' W 092°19'29 4.0
2017-Sep-24 04:00N 29°57' W 092°52'2 4.6
2017-Sep-24 03:30N 29°56' W 092°55'3 4.6
2017-Sep-24 02:58N 29°56' W 092°57'2 4.7
2017-Sep-24 02:30N 29°56' W 092°60'2 4.5
2017-Sep-24 02:00N 29°56' W 093°02'2 4.1
2017-Sep-24 01:30N 29°56' W 093°05'2 3.5
2017-Sep-24 01:00N 29°56' W 093°07'2 4.4
2017-Sep-24 00:30N 29°56' W 093°09'2 4.2
2017-Sep-24 00:00N 29°58' W 093°11'2 4.4
2017-Sep-23 23:30N 29°59' W 093°13'2 4.0
2017-Sep-23 23:00N 30°01' W 093°14'2 3.9
2017-Sep-23 22:30N 30°02' W 093°15'2 4.6
2017-Sep-23 22:00N 30°04' W 093°16'1 3.0
2017-Sep-23 21:30N 30°05' W 093°18'1 1.7
2017-Sep-23 21:00N 30°06' W 093°18'1 2.9
2017-Sep-23 20:30N 30°05' W 093°20'2 4.5
2017-Sep-23 20:00N 30°04' W 093°21'86 2.1
2017-Sep-22 02:00N 29°33' W 094°55'3 6.5
2017-Sep-22 01:30N 29°30' W 094°53'65 4.1
2017-Sep-21 09:54N 30°00' W 093°46'1 2.8
2017-Sep-21 09:28N 30°01' W 093°45'2 4.9
2017-Sep-21 09:00N 30°03' W 093°44'2 4.2
2017-Sep-21 08:30N 30°04' W 093°42'2 3.0
2017-Sep-21 08:00N 30°04' W 093°40'1 2.2
2017-Sep-21 07:30N 30°04' W 093°39'2 4.5
2017-Sep-21 07:00N 30°04' W 093°36'2 4.2
2017-Sep-21 06:30N 30°04' W 093°34'2 4.2
2017-Sep-21 06:00N 30°04' W 093°31'2 4.2
2017-Sep-21 05:30N 30°04' W 093°29'2 4.2
2017-Sep-21 05:00N 30°04' W 093°26'2 4.1
2017-Sep-21 04:30N 30°04' W 093°24'2 3.8
2017-Sep-21 04:00N 30°04' W 093°22'2 3.6
2017-Sep-21 03:30N 30°05' W 093°20'2 4.0
2017-Sep-21 03:00N 30°06' W 093°18'1 1.8
2017-Sep-21 02:30N 30°05' W 093°17'1 1.6
2017-Sep-21 02:00N 30°05' W 093°17'1 2.0
2017-Sep-21 01:30N 30°04' W 093°16'2 4.1
2017-Sep-21 01:00N 30°02' W 093°15'2 4.0
2017-Sep-21 00:30N 30°00' W 093°14'2 4.5
2017-Sep-21 00:00N 29°59' W 093°12'2 4.7
2017-Sep-20 23:30N 29°57' W 093°10'2 4.2
2017-Sep-20 23:00N 29°56' W 093°08'41 4.0
2017-Sep-20 12:43N 29°51' W 092°21'1 3.9
2017-Sep-20 12:30N 29°51' W 092°20'1 1.5
2017-Sep-20 12:00N 29°50' W 092°20'1 2.8
2017-Sep-20 11:30N 29°50' W 092°18'2 3.7
2017-Sep-20 11:00N 29°49' W 092°17'2 4.3
2017-Sep-20 10:30N 29°48' W 092°14'2 4.0
2017-Sep-20 10:00N 29°47' W 092°12'1 2.6
2017-Sep-20 09:30N 29°47' W 092°11'1 2.1
2017-Sep-20 09:00N 29°47' W 092°10'2 4.0
2017-Sep-20 08:30N 29°47' W 092°07'2 4.4
2017-Sep-20 08:00N 29°48' W 092°05'2 4.4
2017-Sep-20 07:30N 29°49' W 092°03'2 4.4
2017-Sep-20 07:00N 29°50' W 092°00'3 4.3
2017-Sep-20 06:23N 29°50' W 091°57'60 3.9
2017-Sep-19 14:56N 29°32' W 090°52'2 5.0
2017-Sep-19 14:29N 29°32' W 090°49'2 4.9
2017-Sep-19 14:00N 29°32' W 090°47'2 4.3
2017-Sep-19 13:30N 29°34' W 090°45'2 3.4
2017-Sep-19 13:00N 29°34' W 090°43'2 3.3
2017-Sep-19 12:30N 29°36' W 090°43'1 2.5
2017-Sep-19 12:00N 29°37' W 090°42'2 4.0
2017-Sep-19 11:30N 29°36' W 090°39'2 4.5
2017-Sep-19 11:01N 29°35' W 090°37'2 3.8
2017-Sep-19 10:30N 29°35' W 090°35'2 3.0
2017-Sep-19 10:00N 29°34' W 090°34'2 3.7
2017-Sep-19 09:30N 29°34' W 090°31'2 4.3
2017-Sep-19 09:00N 29°34' W 090°29'2 4.4
2017-Sep-19 08:30N 29°33' W 090°26'  
Track history (hours):
 
Tides and Currents Weather Stations Pressure Air Temp Water Temp Dewpoint Dewpoint Depression Visibility Wind Speed Wind Dir Waves Ship Positions

M/V Rhett Parker

Owner: Parker Towing Company, Inc., TUSCALOOSA, AL. More information available from US FCC via Universal Licensing System and Coast Guard Vessel Documentation Center.

Last reported at 2017-Sep-25 20:38 UTC. Time now 2017-Dec-18 12:36 UTC.
Position N 29°33' W 090°24'.
Warning: this ship's position is months out of date.

Length 26 m.

Type: Tug. MMSI: 367136670.

Date/timePositionNaut miles runAvg speedWind from/ knotsBaromVisibWave heightAir tempDewpointWater temp
2017-Sep-25 20:38N 29°33' W 090°24'0 2.5
2017-Sep-25 20:30N 29°33' W 090°24'1 2.0
2017-Sep-25 19:59N 29°33' W 090°25'1 0.7
2017-Sep-25 18:54N 29°33' W 090°26'2 4.3
2017-Sep-25 18:29N 29°33' W 090°28'2 4.4
2017-Sep-25 18:00N 29°34' W 090°30'2 4.4
2017-Sep-25 17:30N 29°34' W 090°33'2 4.3
2017-Sep-25 16:59N 29°35' W 090°35'2 4.2
2017-Sep-25 16:30N 29°35' W 090°38'2 4.3
2017-Sep-25 16:00N 29°36' W 090°40'2 4.0
2017-Sep-25 15:30N 29°37' W 090°42'2 3.0
2017-Sep-25 15:00N 29°35' W 090°43'2 3.7
2017-Sep-25 14:30N 29°34' W 090°44'2 4.7
2017-Sep-25 14:00N 29°32' W 090°46'3 5.1
2017-Sep-25 13:30N 29°32' W 090°49'3 5.3
2017-Sep-25 13:00N 29°32' W 090°52'3 5.4
2017-Sep-25 12:30N 29°33' W 090°55'3 5.6
2017-Sep-25 12:00N 29°35' W 090°57'55 2.9
2017-Sep-24 17:25N 29°50' W 091°57'2 5.5
2017-Sep-24 17:00N 29°50' W 091°60'3 5.7
2017-Sep-24 16:30N 29°49' W 092°03'3 5.7
2017-Sep-24 16:00N 29°48' W 092°06'3 5.4
2017-Sep-24 15:30N 29°47' W 092°09'2 4.8
2017-Sep-24 15:00N 29°47' W 092°12'1 1.9
2017-Sep-24 14:30N 29°47' W 092°13'1 1.2
2017-Sep-24 14:00N 29°48' W 092°13'0 0.0
2017-Sep-24 13:30N 29°48' W 092°13'0 0.0
2017-Sep-24 13:00N 29°48' W 092°13'1 1.6
2017-Sep-24 12:30N 29°48' W 092°14'2 4.7
2017-Sep-24 12:00N 29°49' W 092°17'3 4.5
2017-Sep-24 11:25N 29°50' W 092°19'29 4.0
2017-Sep-24 04:00N 29°57' W 092°52'2 4.6
2017-Sep-24 03:30N 29°56' W 092°55'3 4.6
2017-Sep-24 02:58N 29°56' W 092°57'2 4.7
2017-Sep-24 02:30N 29°56' W 092°60'2 4.5
2017-Sep-24 02:00N 29°56' W 093°02'2 4.1
2017-Sep-24 01:30N 29°56' W 093°05'2 3.5
2017-Sep-24 01:00N 29°56' W 093°07'2 4.4
2017-Sep-24 00:30N 29°56' W 093°09'2 4.2
2017-Sep-24 00:00N 29°58' W 093°11'2 4.4
2017-Sep-23 23:30N 29°59' W 093°13'2 4.0
2017-Sep-23 23:00N 30°01' W 093°14'2 3.9
2017-Sep-23 22:30N 30°02' W 093°15'2 4.6
2017-Sep-23 22:00N 30°04' W 093°16'1 3.0
2017-Sep-23 21:30N 30°05' W 093°18'1 1.7
2017-Sep-23 21:00N 30°06' W 093°18'1 2.9
2017-Sep-23 20:30N 30°05' W 093°20'2 4.5
2017-Sep-23 20:00N 30°04' W 093°21'86 2.1
2017-Sep-22 02:00N 29°33' W 094°55'3 6.5
2017-Sep-22 01:30N 29°30' W 094°53'65 4.1
2017-Sep-21 09:54N 30°00' W 093°46'1 2.8
2017-Sep-21 09:28N 30°01' W 093°45'2 4.9
2017-Sep-21 09:00N 30°03' W 093°44'2 4.2
2017-Sep-21 08:30N 30°04' W 093°42'2 3.0
2017-Sep-21 08:00N 30°04' W 093°40'1 2.2
2017-Sep-21 07:30N 30°04' W 093°39'2 4.5
2017-Sep-21 07:00N 30°04' W 093°36'2 4.2
2017-Sep-21 06:30N 30°04' W 093°34'2 4.2
2017-Sep-21 06:00N 30°04' W 093°31'2 4.2
2017-Sep-21 05:30N 30°04' W 093°29'2 4.2
2017-Sep-21 05:00N 30°04' W 093°26'2 4.1
2017-Sep-21 04:30N 30°04' W 093°24'2 3.8
2017-Sep-21 04:00N 30°04' W 093°22'2 3.6
2017-Sep-21 03:30N 30°05' W 093°20'2 4.0
2017-Sep-21 03:00N 30°06' W 093°18'1 1.8
2017-Sep-21 02:30N 30°05' W 093°17'1 1.6
2017-Sep-21 02:00N 30°05' W 093°17'1 2.0
2017-Sep-21 01:30N 30°04' W 093°16'2 4.1
2017-Sep-21 01:00N 30°02' W 093°15'2 4.0
2017-Sep-21 00:30N 30°00' W 093°14'2 4.5
2017-Sep-21 00:00N 29°59' W 093°12'2 4.7
2017-Sep-20 23:30N 29°57' W 093°10'2 4.2
2017-Sep-20 23:00N 29°56' W 093°08'41 4.0
2017-Sep-20 12:43N 29°51' W 092°21'1 3.9
2017-Sep-20 12:30N 29°51' W 092°20'1 1.5
2017-Sep-20 12:00N 29°50' W 092°20'1 2.8
2017-Sep-20 11:30N 29°50' W 092°18'2 3.7
2017-Sep-20 11:00N 29°49' W 092°17'2 4.3
2017-Sep-20 10:30N 29°48' W 092°14'2 4.0
2017-Sep-20 10:00N 29°47' W 092°12'1 2.6
2017-Sep-20 09:30N 29°47' W 092°11'1 2.1
2017-Sep-20 09:00N 29°47' W 092°10'2 4.0
2017-Sep-20 08:30N 29°47' W 092°07'2 4.4
2017-Sep-20 08:00N 29°48' W 092°05'2 4.4
2017-Sep-20 07:30N 29°49' W 092°03'2 4.4
2017-Sep-20 07:00N 29°50' W 092°00'3 4.3
2017-Sep-20 06:23N 29°50' W 091°57'60 3.9
2017-Sep-19 14:56N 29°32' W 090°52'2 5.0
2017-Sep-19 14:29N 29°32' W 090°49'2 4.9
2017-Sep-19 14:00N 29°32' W 090°47'2 4.3
2017-Sep-19 13:30N 29°34' W 090°45'2 3.4
2017-Sep-19 13:00N 29°34' W 090°43'2 3.3
2017-Sep-19 12:30N 29°36' W 090°43'1 2.5
2017-Sep-19 12:00N 29°37' W 090°42'2 4.0
2017-Sep-19 11:30N 29°36' W 090°39'2 4.5
2017-Sep-19 11:01N 29°35' W 090°37'2 3.8
2017-Sep-19 10:30N 29°35' W 090°35'2 3.0
2017-Sep-19 10:00N 29°34' W 090°34'2 3.7
2017-Sep-19 09:30N 29°34' W 090°31'2 4.3
2017-Sep-19 09:00N 29°34' W 090°29'2 4.4
2017-Sep-19 08:30N 29°33' W 090°26'  

Dump ship's entire track history